Terminal Aerodrome Forecast
Issued by NWS

Home | Current Version | Previous Version | Text Only | Print | Product List | Glossary On
Versions: 1 2 3 4 5 6 7 8 9 10 11 12 13 14 15
262
FTUS45 KRIW 260930 AAA
TAFCPR
TAF AMD
KCPR 260930Z 2610/2706 35010KT P6SM -RA SCT008 OVC018
      TEMPO 2610/2614 5SM -RA BR BKN008
     FM261500 01007KT P6SM VCSH SCT017 BKN028
     FM261800 34006KT P6SM SCT025 BKN045
     FM270100 22006KT P6SM FEW050 SCT150=

USA.gov is the U.S. government's official web portal to all federal, state and local government web resources and services.